Terminal Aerodrome Forecast
Issued by NWS

Home | Current Version | Previous Version | Text Only | Print | Product List | Glossary On
Versions: 1 2 3 4 5 6 7 8 9 10 11 12 13 14 15 16 17 18 19 20 21 22 23 24 25 26 27 28 29 30 31 32 33 34 35 36
000
FTUS43 KLOT 271341 AAA
TAFDPA
TAF AMD
KDPA 271341Z 2714/2812 24012G18KT P6SM SCT015
      TEMPO 2714/2716 BKN015
     FM271700 27012KT P6SM SCT040 SCT250
      TEMPO 2717/2719 5SM -RA BKN020
     FM272300 25004KT P6SM FEW040
     FM280100 VRB03KT P6SM SKC=

USA.gov is the U.S. government's official web portal to all federal, state and local government web resources and services.